Time;durP1;ratioP1;P1;durP2;ratioP2;P2;SDS_P1;SDS_P2;PMS_P1;PMS_P2;Temp;Humidity;BMP_temperature;BMP_pressure;BME280_temperature;BME280_humidity;BME280_pressure;Samples;Min_cycle;Max_cycle;Signal;HPM_P1;HPM_P2
2022/12/13 00:00:42;;;;;;;31.02;18.67;;;;;;;-1.31;71.25;99800.75;5048667;28;20864;-74
2022/12/13 00:03:08;;;;;;;34.90;18.60;;;;;;;-1.34;71.79;99797.66;5053671;28;20373;-74
2022/12/13 00:05:34;;;;;;;33.92;18.55;;;;;;;-1.38;71.68;99794.53;5036029;28;20411;-74
2022/12/13 00:08:00;;;;;;;34.67;17.90;;;;;;;-1.41;71.31;99796.72;5026880;28;20486;-74
2022/12/13 00:10:26;;;;;;;34.85;18.17;;;;;;;-1.39;72.05;99792.06;5042163;28;20383;-74
2022/12/13 00:12:51;;;;;;;32.55;18.67;;;;;;;-1.34;71.48;99797.66;5039520;28;20885;-74
2022/12/13 00:15:18;;;;;;;36.67;19.17;;;;;;;-1.37;71.30;99801.50;5044498;28;20396;-75
2022/12/13 00:17:44;;;;;;;33.55;17.70;;;;;;;-1.38;71.63;99791.88;5046708;28;20420;-75
2022/12/13 00:20:10;;;;;;;33.65;18.50;;;;;;;-1.37;71.39;99787.38;5039552;28;20585;-74
2022/12/13 00:22:36;;;;;;;36.78;19.58;;;;;;;-1.34;71.12;99797.66;5046464;28;20389;-75
2022/12/13 00:25:01;;;;;;;31.90;18.40;;;;;;;-1.34;71.56;99790.50;5037785;28;20423;-74
2022/12/13 00:27:26;;;;;;;32.93;17.90;;;;;;;-1.35;71.22;99793.34;5049886;28;20447;-74
2022/12/13 00:29:51;;;;;;;28.83;16.20;;;;;;;-1.36;70.98;99781.91;5052825;28;20487;-74
2022/12/13 00:32:17;;;;;;;32.17;17.90;;;;;;;-1.37;71.27;99787.38;5034348;28;20399;-75
2022/12/13 00:34:42;;;;;;;31.43;17.67;;;;;;;-1.40;70.68;99779.78;5033560;28;20751;-75
2022/12/13 00:37:07;;;;;;;31.77;18.07;;;;;;;-1.44;71.18;99784.63;5035367;28;20399;-74
2022/12/13 00:39:33;;;;;;;31.57;18.03;;;;;;;-1.41;70.96;99780.78;5030689;28;20406;-75
2022/12/13 00:41:58;;;;;;;32.78;18.00;;;;;;;-1.42;71.20;99777.31;5038761;28;20762;-74
2022/12/13 00:44:23;;;;;;;33.10;17.77;;;;;;;-1.41;70.99;99778.13;5036182;28;20414;-74
2022/12/13 00:46:50;;;;;;;32.43;18.33;;;;;;;-1.47;71.34;99773.56;5041816;28;20789;-74
2022/12/13 00:49:16;;;;;;;30.23;17.88;;;;;;;-1.48;71.03;99762.09;5041666;28;21014;-73
2022/12/13 00:51:42;;;;;;;31.52;17.70;;;;;;;-1.47;70.52;99760.25;5041081;28;20437;-74
2022/12/13 00:54:09;;;;;;;31.47;17.67;;;;;;;-1.52;70.50;99760.00;5033469;28;20400;-74
2022/12/13 00:56:36;;;;;;;28.70;17.43;;;;;;;-1.53;70.68;99758.34;5034136;28;20440;-75
2022/12/13 00:59:02;;;;;;;29.40;17.63;;;;;;;-1.55;70.44;99755.91;5031443;28;20532;-74
2022/12/13 01:01:31;;;;;;;31.73;17.45;;;;;;;-1.49;70.71;99763.13;5031102;28;20794;-75
2022/12/13 01:03:58;;;;;;;31.85;17.77;;;;;;;-1.57;70.34;99758.72;5045411;28;20391;-74
2022/12/13 01:06:30;;;;;;;29.33;17.45;;;;;;;-1.55;70.40;99763.03;5034356;28;20411;-75
2022/12/13 01:08:55;;;;;;;35.47;17.42;;;;;;;-1.52;70.31;99760.00;5033879;28;20480;-74
2022/12/13 01:11:20;;;;;;;30.37;17.37;;;;;;;-1.51;70.54;99753.66;5043784;28;20916;-75
2022/12/13 01:13:46;;;;;;;30.47;17.47;;;;;;;-1.48;70.22;99753.31;5051664;28;20411;-75
2022/12/13 01:16:12;;;;;;;32.28;17.83;;;;;;;-1.52;70.44;99750.22;5042391;28;20423;-75
2022/12/13 01:18:38;;;;;;;29.33;16.98;;;;;;;-1.52;70.56;99760.00;5046725;28;20384;-74
2022/12/13 01:21:07;;;;;;;29.52;16.15;;;;;;;-1.51;70.17;99757.16;5044269;28;20929;-74
2022/12/13 01:23:32;;;;;;;29.25;15.93;;;;;;;-1.49;70.35;99760.47;5049276;28;20397;-75
2022/12/13 01:26:02;;;;;;;33.63;18.23;;;;;;;-1.49;70.11;99759.63;5038734;28;20753;-75
2022/12/13 01:28:27;;;;;;;31.00;17.45;;;;;;;-1.51;70.16;99756.31;5038810;28;20394;-74
2022/12/13 01:31:04;;;;;;;29.00;16.90;;;;;;;-1.51;70.19;99756.31;5030387;28;20492;-75
2022/12/13 01:33:30;;;;;;;33.92;17.83;;;;;;;-1.58;70.21;99753.56;5050285;28;20425;-74
2022/12/13 01:36:00;;;;;;;32.40;17.67;;;;;;;-1.67;70.22;99750.19;5045282;28;20470;-74
2022/12/13 01:38:25;;;;;;;33.33;17.57;;;;;;;-1.69;70.51;99757.53;5034243;28;20474;-74
2022/12/13 01:40:56;;;;;;;32.67;17.00;;;;;;;-1.67;70.88;99752.84;5033622;28;20398;-75
2022/12/13 01:43:45;;;;;;;31.30;17.55;;;;;;;-1.69;70.92;99746.91;5044883;28;20395;-74
2022/12/13 01:46:12;;;;;;;29.65;17.20;;;;;;;-1.70;71.04;99750.56;5035759;28;20515;-75
2022/12/13 01:48:43;;;;;;;31.08;17.75;;;;;;;-1.71;70.83;99754.22;5027692;28;20381;-74
2022/12/13 01:51:11;;;;;;;34.20;17.50;;;;;;;-1.75;71.17;99747.66;5047715;28;20381;-74
2022/12/13 01:53:39;;;;;;;29.73;16.73;;;;;;;-1.75;70.96;99744.16;5050305;28;20453;-75
2022/12/13 01:56:12;;;;;;;29.15;16.88;;;;;;;-1.76;70.95;99750.47;5024077;28;20394;-72
2022/12/13 01:58:38;;;;;;;31.00;17.40;;;;;;;-1.81;71.20;99743.03;5035061;28;20396;-74
2022/12/13 02:01:03;;;;;;;29.80;16.88;;;;;;;-1.86;71.45;99744.63;5049612;28;20397;-74
2022/12/13 02:03:29;;;;;;;30.55;16.40;;;;;;;-1.86;71.29;99737.47;5036294;28;20397;-75
2022/12/13 02:06:03;;;;;;;27.67;16.77;;;;;;;-1.83;70.74;99736.28;5048354;28;20412;-74
2022/12/13 02:08:28;;;;;;;26.38;16.60;;;;;;;-1.84;70.93;99740.75;5052010;28;20393;-74
2022/12/13 02:10:55;;;;;;;31.07;17.23;;;;;;;-1.85;70.43;99733.81;5051757;28;20388;-75
2022/12/13 02:13:20;;;;;;;33.93;16.47;;;;;;;-1.88;70.42;99730.69;5043316;28;20385;-74
2022/12/13 02:16:13;;;;;;;30.63;17.33;;;;;;;-1.91;70.97;99737.19;5046010;28;20877;-74
2022/12/13 02:18:53;;;;;;;29.13;17.27;;;;;;;-1.88;70.90;99725.41;5047125;28;20499;-75
2022/12/13 02:21:23;;;;;;;30.60;16.63;;;;;;;-1.86;70.28;99718.88;5038285;28;20792;-74
2022/12/13 02:24:17;;;;;;;28.70;16.27;;;;;;;-1.87;70.22;99721.72;5035866;28;20437;-75
2022/12/13 02:27:06;;;;;;;33.47;18.20;;;;;;;-1.99;70.73;99716.03;5051616;28;20744;-75
2022/12/13 02:30:16;;;;;;;32.00;18.17;;;;;;;-1.98;70.62;99724.84;5050292;28;20397;-75
2022/12/13 02:33:06;;;;;;;31.42;17.73;;;;;;;-1.99;70.38;99718.69;5046245;28;20389;-75
2022/12/13 02:35:41;;;;;;;34.53;17.95;;;;;;;-1.94;70.83;99715.50;5051430;28;20852;-74
2022/12/13 02:38:17;;;;;;;31.77;16.92;;;;;;;-1.93;70.35;99728.59;5035231;28;20400;-75
2022/12/13 02:40:57;;;;;;;30.10;17.42;;;;;;;-1.97;70.51;99726.47;5021026;28;20381;-75
2022/12/13 02:43:31;;;;;;;27.85;16.65;;;;;;;-2.05;70.06;99726.56;5051379;28;20433;-75
2022/12/13 02:46:01;;;;;;;34.45;18.60;;;;;;;-2.03;70.77;99717.41;5036984;28;20419;-74
2022/12/13 02:48:39;;;;;;;33.97;18.02;;;;;;;-1.99;70.33;99713.38;5036609;28;20385;-75
2022/12/13 02:51:08;;;;;;;35.70;18.23;;;;;;;-2.00;70.47;99713.56;5046996;28;20394;-74
2022/12/13 02:53:35;;;;;;;29.33;18.23;;;;;;;-2.11;70.16;99702.38;5048031;28;20415;-74
2022/12/13 02:56:00;;;;;;;32.67;18.70;;;;;;;-2.13;70.95;99700.91;5039801;28;20389;-74
2022/12/13 02:58:31;;;;;;;29.03;17.20;;;;;;;-2.21;70.54;99704.50;5050091;28;20404;-74
2022/12/13 03:01:27;;;;;;;32.85;18.30;;;;;;;-2.20;71.18;99698.16;5051365;28;20901;-75
2022/12/13 03:04:20;;;;;;;35.85;18.70;;;;;;;-2.22;71.27;99694.06;5051024;28;20923;-74
2022/12/13 03:07:11;;;;;;;34.13;19.33;;;;;;;-2.26;71.15;99696.25;5042479;28;20869;-74
2022/12/13 03:09:53;;;;;;;35.95;19.17;;;;;;;-2.36;71.67;99693.03;5051196;28;20386;-74
2022/12/13 03:15:20;;;;;;;33.05;18.65;;;;;;;-2.35;71.63;99680.59;5036048;28;20725;-74
2022/12/13 03:17:55;;;;;;;36.55;18.92;;;;;;;-2.47;71.15;99680.19;5043385;28;20391;-74
2022/12/13 03:20:24;;;;;;;32.92;18.88;;;;;;;-2.48;71.83;99688.34;5050060;28;20389;-75
2022/12/13 03:22:51;;;;;;;36.40;18.60;;;;;;;-2.55;71.88;99680.28;5051154;28;20726;-74
2022/12/13 03:25:17;;;;;;;32.60;19.20;;;;;;;-2.57;71.75;99684.13;5049228;28;20408;-75
2022/12/13 03:27:42;;;;;;;35.67;20.48;;;;;;;-2.62;72.22;99690.78;5044677;28;20393;-74
2022/12/13 03:30:08;;;;;;;36.17;19.73;;;;;;;-2.56;72.08;99685.75;5028709;28;20420;-74
2022/12/13 03:32:33;;;;;;;34.92;20.25;;;;;;;-2.54;72.12;99678.44;5034506;28;20776;-74
2022/12/13 03:34:59;;;;;;;35.03;19.80;;;;;;;-2.50;72.32;99677.09;5051011;28;20386;-75
2022/12/13 03:37:24;;;;;;;35.00;20.07;;;;;;;-2.54;72.22;99671.31;5036415;28;20375;-74
2022/12/13 03:39:49;;;;;;;36.03;19.63;;;;;;;-2.58;71.78;99674.50;5037519;28;20394;-74
2022/12/13 03:42:16;;;;;;;37.97;20.60;;;;;;;-2.64;72.60;99668.94;5039491;28;20375;-75
2022/12/13 03:44:42;;;;;;;36.53;20.60;;;;;;;-2.64;72.67;99678.72;5043172;28;20450;-74
2022/12/13 03:47:07;;;;;;;38.03;20.05;;;;;;;-2.64;72.75;99676.88;5044895;28;20431;-74
2022/12/13 03:49:32;;;;;;;37.00;20.27;;;;;;;-2.62;72.43;99682.00;5046479;28;20405;-74
2022/12/13 03:51:57;;;;;;;41.50;20.50;;;;;;;-2.66;72.57;99673.56;5053287;28;20399;-74
2022/12/13 03:54:23;;;;;;;42.20;20.37;;;;;;;-2.60;72.76;99679.19;5035362;28;20401;-74
2022/12/13 03:56:48;;;;;;;38.43;19.87;;;;;;;-2.63;72.54;99680.34;5034778;28;20399;-74
2022/12/13 03:59:13;;;;;;;42.60;22.50;;;;;;;-2.64;72.62;99682.19;5038691;28;20791;-75
2022/12/13 04:01:38;;;;;;;37.63;19.53;;;;;;;-2.58;72.47;99685.13;5050851;28;20392;-74
2022/12/13 04:04:04;;;;;;;40.00;22.13;;;;;;;-2.66;72.58;99678.03;5036048;28;20385;-74
2022/12/13 04:06:29;;;;;;;38.73;21.70;;;;;;;-2.72;72.31;99681.41;5043862;28;20431;-74
2022/12/13 04:08:54;;;;;;;40.67;20.98;;;;;;;-2.68;72.46;99680.88;5037396;28;20387;-75
2022/12/13 04:14:03;;;;;;;38.60;20.88;;;;;;;-2.70;72.13;99679.44;5043158;28;20400;-74
2022/12/13 04:16:28;;;;;;;38.50;21.20;;;;;;;-2.68;72.47;99685.38;5037460;28;20391;-73
2022/12/13 04:18:54;;;;;;;42.00;21.63;;;;;;;-2.71;72.43;99680.41;5039208;28;20397;-73
2022/12/13 04:21:19;;;;;;;36.53;20.10;;;;;;;-2.72;72.63;99684.06;5031369;28;20859;-74
2022/12/13 04:23:44;;;;;;;37.77;20.20;;;;;;;-2.76;72.23;99686.25;5041526;28;20447;-74
2022/12/13 04:26:10;;;;;;;36.72;20.13;;;;;;;-2.77;72.19;99683.78;5036859;28;20506;-74
2022/12/13 04:28:35;;;;;;;35.47;21.13;;;;;;;-2.76;72.27;99682.78;5044128;28;20482;-74
2022/12/13 04:31:00;;;;;;;38.27;19.90;;;;;;;-2.74;72.68;99672.81;5046598;28;20389;-75
2022/12/13 04:33:25;;;;;;;38.77;22.23;;;;;;;-2.76;72.84;99674.81;5051587;28;20765;-75
2022/12/13 04:35:51;;;;;;;40.20;21.30;;;;;;;-2.76;72.75;99680.13;5040668;28;20483;-74
2022/12/13 04:38:16;;;;;;;39.80;21.15;;;;;;;-2.76;72.33;99682.78;5040542;28;20441;-75
2022/12/13 04:40:42;;;;;;;39.17;21.20;;;;;;;-2.76;72.82;99683.59;5052436;28;20393;-74
2022/12/13 04:43:07;;;;;;;43.30;23.17;;;;;;;-2.76;72.42;99683.59;5044585;28;20381;-74
2022/12/13 04:45:32;;;;;;;43.20;21.27;;;;;;;-2.78;72.44;99690.91;5044395;28;20451;-74
2022/12/13 04:47:57;;;;;;;38.20;20.97;;;;;;;-2.79;72.42;99688.44;5035764;28;20470;-74
2022/12/13 04:50:23;;;;;;;36.22;20.02;;;;;;;-2.75;72.47;99690.56;5038525;28;20899;-74
2022/12/13 04:52:48;;;;;;;42.63;21.73;;;;;;;-2.73;72.77;99682.41;5040643;28;20397;-74
2022/12/13 04:55:13;;;;;;;39.90;20.83;;;;;;;-2.73;72.14;99685.06;5031993;28;20412;-75
2022/12/13 04:57:39;;;;;;;38.63;20.27;;;;;;;-2.77;71.95;99689.09;5042649;28;20752;-74
2022/12/13 05:00:07;;;;;;;41.23;21.50;;;;;;;-2.76;72.58;99690.72;5053136;28;20886;-74
2022/12/13 05:02:32;;;;;;;36.42;20.13;;;;;;;-2.76;72.02;99677.47;5048541;28;20393;-74
2022/12/13 05:04:58;;;;;;;38.77;21.43;;;;;;;-2.77;72.24;99683.78;5038736;28;20422;-74
2022/12/13 05:07:24;;;;;;;42.23;22.20;;;;;;;-2.80;72.41;99674.34;5046432;28;20511;-74
2022/12/13 05:09:50;;;;;;;38.15;20.00;;;;;;;-2.81;72.68;99679.84;5045763;28;20396;-74
2022/12/13 05:12:18;;;;;;;42.33;21.50;;;;;;;-2.85;72.84;99678.53;5033640;28;20731;-74
2022/12/13 05:14:43;;;;;;;41.50;21.90;;;;;;;-2.92;72.14;99678.44;5036807;28;20391;-74
2022/12/13 05:17:08;;;;;;;42.13;22.30;;;;;;;-2.91;72.49;99674.78;5045930;28;21010;-74
2022/12/13 05:19:34;;;;;;;39.17;20.95;;;;;;;-2.85;72.62;99675.88;5045016;28;20449;-74
2022/12/13 05:21:59;;;;;;;38.70;21.43;;;;;;;-2.86;72.55;99671.56;5027599;28;20455;-75
2022/12/13 05:24:25;;;;;;;37.97;21.23;;;;;;;-2.85;72.33;99673.25;5034740;28;20428;-74
2022/12/13 05:26:50;;;;;;;40.20;20.77;;;;;;;-2.90;72.62;99671.13;5036970;28;20486;-74
2022/12/13 05:29:16;;;;;;;39.33;20.93;;;;;;;-2.85;72.34;99679.38;5031768;28;20396;-74
2022/12/13 05:31:41;;;;;;;45.93;22.27;;;;;;;-2.92;71.80;99675.78;5032236;28;20877;-75
2022/12/13 05:34:06;;;;;;;38.63;21.77;;;;;;;-2.97;72.79;99677.31;5048290;28;20421;-74
2022/12/13 05:36:32;;;;;;;40.77;20.77;;;;;;;-2.97;72.73;99666.72;5044198;28;20842;-74
2022/12/13 05:38:57;;;;;;;43.80;21.13;;;;;;;-2.95;72.52;99664.69;5026554;28;20407;-74
2022/12/13 05:41:23;;;;;;;40.40;21.10;;;;;;;-2.98;72.66;99667.72;5026878;28;20407;-74
2022/12/13 05:43:52;;;;;;;41.90;21.60;;;;;;;-2.97;72.44;99666.72;5022829;28;20411;-74
2022/12/13 05:46:17;;;;;;;43.08;21.25;;;;;;;-2.95;72.52;99670.00;5017255;28;20465;-75
2022/12/13 05:48:43;;;;;;;41.03;22.03;;;;;;;-2.94;72.33;99659.22;5017592;28;20404;-74
2022/12/13 05:51:09;;;;;;;45.25;22.05;;;;;;;-2.96;72.52;99663.88;5023855;28;20399;-74
2022/12/13 05:53:34;;;;;;;39.42;20.63;;;;;;;-3.04;72.68;99665.78;5036400;28;20842;-74
2022/12/13 05:56:03;;;;;;;39.87;20.67;;;;;;;-3.03;72.07;99659.47;5028907;28;20490;-75
2022/12/13 05:58:28;;;;;;;41.53;20.60;;;;;;;-3.06;72.38;99662.47;5028355;28;20882;-74
2022/12/13 06:00:53;;;;;;;40.63;21.27;;;;;;;-3.08;72.70;99660.00;5030677;28;20433;-74
2022/12/13 06:03:19;;;;;;;39.93;21.73;;;;;;;-3.13;73.01;99670.31;5029133;28;20456;-75
2022/12/13 06:05:44;;;;;;;46.47;22.93;;;;;;;-3.11;72.84;99678.91;5024435;28;20428;-74
2022/12/13 06:08:10;;;;;;;61.85;28.55;;;;;;;-3.10;72.79;99669.13;5020249;28;20463;-75
2022/12/13 06:10:36;;;;;;;71.20;31.02;;;;;;;-3.09;72.64;99666.28;5024414;28;20441;-74
2022/12/13 06:13:03;;;;;;;65.35;29.13;;;;;;;-3.03;72.26;99668.22;5025909;28;20407;-74
2022/12/13 06:15:28;;;;;;;80.75;33.85;;;;;;;-3.00;72.45;99673.19;5037085;28;20484;-76
2022/12/13 06:17:53;;;;;;;76.50;34.33;;;;;;;-2.99;72.43;99663.41;5043416;28;20426;-75
2022/12/13 06:20:20;;;;;;;55.72;27.45;;;;;;;-3.00;72.39;99657.31;5034493;28;20792;-74
2022/12/13 06:22:45;;;;;;;45.57;24.17;;;;;;;-3.05;72.23;99654.34;5045802;28;20412;-75
2022/12/13 06:25:10;;;;;;;36.77;21.33;;;;;;;-3.04;72.26;99655.16;5022932;28;20421;-74
2022/12/13 06:27:35;;;;;;;39.00;20.90;;;;;;;-3.01;72.16;99657.47;5014473;28;20533;-74
2022/12/13 06:30:01;;;;;;;43.17;21.83;;;;;;;-2.99;71.93;99658.09;5021628;28;20413;-75
2022/12/13 06:32:26;;;;;;;41.47;22.00;;;;;;;-3.03;72.29;99665.56;5027721;28;20538;-75
2022/12/13 06:34:51;;;;;;;43.75;22.17;;;;;;;-3.05;72.08;99664.09;5022214;28;20422;-75
2022/12/13 06:37:17;;;;;;;43.30;22.10;;;;;;;-3.04;72.30;99668.41;5017612;28;20408;-74
2022/12/13 06:39:42;;;;;;;40.03;21.43;;;;;;;-3.04;72.24;99668.41;5026610;28;20458;-74
2022/12/13 06:42:15;;;;;;;43.70;23.17;;;;;;;-3.03;71.76;99665.56;5024102;28;20495;-75
2022/12/13 06:44:40;;;;;;;39.88;22.40;;;;;;;-3.10;72.42;99674.44;5021948;28;20420;-74
2022/12/13 06:47:06;;;;;;;38.63;20.23;;;;;;;-3.07;71.91;99674.91;5015164;28;20397;-74
2022/12/13 06:49:32;;;;;;;44.63;23.25;;;;;;;-3.04;72.10;99677.19;5037945;28;20412;-74
2022/12/13 06:51:57;;;;;;;44.57;22.60;;;;;;;-3.03;71.94;99691.28;5019646;28;20928;-74
2022/12/13 06:54:23;;;;;;;37.60;21.80;;;;;;;-3.11;72.50;99691.31;5030647;28;20405;-74
2022/12/13 06:56:48;;;;;;;42.53;23.23;;;;;;;-3.13;72.16;99696.81;5029350;28;20892;-75
2022/12/13 06:59:13;;;;;;;42.70;22.17;;;;;;;-3.18;72.56;99699.97;5045960;28;20769;-74
2022/12/13 07:01:39;;;;;;;46.10;22.83;;;;;;;-3.16;72.28;99694.50;5044167;28;20423;-74
2022/12/13 07:04:05;;;;;;;42.13;21.87;;;;;;;-3.18;72.09;99696.50;5045225;28;20480;-73
2022/12/13 07:06:30;;;;;;;41.83;22.15;;;;;;;-3.10;72.68;99698.28;5034244;28;20409;-73
2022/12/13 07:08:56;;;;;;;41.97;21.20;;;;;;;-3.11;72.40;99694.81;5028453;28;20415;-73
2022/12/13 07:11:28;;;;;;;45.58;22.60;;;;;;;-3.18;72.49;99696.50;5032555;28;20784;-73
2022/12/13 07:13:54;;;;;;;46.20;23.67;;;;;;;-3.14;72.40;99695.16;5048325;28;20892;-74
2022/12/13 07:16:22;;;;;;;44.70;21.67;;;;;;;-3.13;71.89;99691.50;5016924;28;20412;-74
2022/12/13 07:18:52;;;;;;;46.08;23.48;;;;;;;-3.16;72.13;99694.50;5017780;28;20408;-73
2022/12/13 07:21:18;;;;;;;42.77;22.93;;;;;;;-3.21;72.12;99700.34;5031051;28;20803;-73
2022/12/13 07:23:43;;;;;;;44.78;23.27;;;;;;;-3.22;72.36;99700.50;5044460;28;20405;-74
2022/12/13 07:26:08;;;;;;;48.00;23.85;;;;;;;-3.18;72.15;99702.63;5015179;28;20466;-74
2022/12/13 07:28:35;;;;;;;45.53;23.65;;;;;;;-3.21;72.02;99697.69;5025073;28;20410;-73
2022/12/13 07:31:02;;;;;;;51.85;24.90;;;;;;;-3.22;72.44;99706.63;5027695;28;20404;-74
2022/12/13 07:33:28;;;;;;;46.50;24.35;;;;;;;-3.26;72.17;99712.47;5033440;28;20409;-74
2022/12/13 07:36:10;;;;;;;51.35;24.80;;;;;;;-3.27;72.65;99716.09;5025650;28;20405;-73
2022/12/13 07:38:36;;;;;;;43.17;22.35;;;;;;;-3.15;72.01;99714.69;5016197;28;20397;-74
2022/12/13 07:41:02;;;;;;;49.88;23.42;;;;;;;-3.05;72.43;99714.47;5016230;28;20405;-75
2022/12/13 07:43:30;;;;;;;44.40;23.38;;;;;;;-3.06;71.81;99712.84;5042178;28;20881;-75
2022/12/13 07:46:00;;;;;;;47.20;23.88;;;;;;;-3.01;71.95;99716.59;5021192;28;20465;-74
2022/12/13 07:48:26;;;;;;;44.20;22.83;;;;;;;-3.01;71.47;99721.91;5026409;28;20400;-74
2022/12/13 07:50:52;;;;;;;40.70;22.17;;;;;;;-2.98;71.54;99716.25;5021288;28;20409;-75
2022/12/13 07:53:17;;;;;;;41.45;21.20;;;;;;;-2.91;71.52;99727.81;5028932;28;20480;-75
2022/12/13 07:55:43;;;;;;;39.23;21.73;;;;;;;-2.95;71.37;99725.66;5020139;28;20531;-74
2022/12/13 07:58:11;;;;;;;41.70;23.25;;;;;;;-2.97;71.33;99727.69;5026421;28;20566;-74
2022/12/13 08:00:39;;;;;;;43.90;22.50;;;;;;;-2.99;71.51;99727.84;5036445;28;20596;-75
2022/12/13 08:03:04;;;;;;;43.77;22.73;;;;;;;-3.16;71.78;99721.81;5040802;28;20479;-74
2022/12/13 08:05:30;;;;;;;41.15;21.95;;;;;;;-3.05;71.50;99725.06;5032376;28;20494;-74
2022/12/13 08:07:56;;;;;;;40.03;21.13;;;;;;;-2.98;71.74;99723.38;5022213;28;20408;-74
2022/12/13 08:10:21;;;;;;;38.43;21.83;;;;;;;-2.93;71.27;99727.13;5044428;28;20393;-75
2022/12/13 08:12:46;;;;;;;41.03;22.43;;;;;;;-2.89;71.42;99733.75;5025267;28;20401;-74
2022/12/13 08:15:11;;;;;;;43.03;22.30;;;;;;;-2.87;71.27;99733.59;5039741;28;20859;-74
2022/12/13 08:17:37;;;;;;;42.67;22.92;;;;;;;-2.95;71.26;99721.19;5035861;28;20401;-75
2022/12/13 08:20:03;;;;;;;38.97;21.80;;;;;;;-2.93;71.19;99716.53;5024258;28;20391;-74
2022/12/13 08:22:29;;;;;;;40.53;22.23;;;;;;;-2.95;70.87;99723.03;5050669;28;20440;-75
2022/12/13 08:24:54;;;;;;;42.58;21.52;;;;;;;-2.92;71.78;99726.16;5037736;28;20859;-74
2022/12/13 08:27:19;;;;;;;39.63;21.50;;;;;;;-2.74;71.22;99725.88;5020682;28;20533;-75
2022/12/13 08:29:45;;;;;;;45.33;21.57;;;;;;;-2.61;70.31;99728.75;5033515;28;20401;-75
2022/12/13 08:32:11;;;;;;;42.93;23.20;;;;;;;-2.49;70.40;99732.59;5024776;28;20458;-74
2022/12/13 08:34:38;;;;;;;42.63;22.17;;;;;;;-2.46;70.11;99718.97;5035127;28;20438;-74
2022/12/13 08:37:03;;;;;;;44.20;22.83;;;;;;;-2.54;70.36;99712.94;5031621;28;20879;-74
2022/12/13 08:39:35;;;;;;;46.53;22.57;;;;;;;-2.46;70.13;99704.88;5030697;28;20516;-74
2022/12/13 08:42:05;;;;;;;42.67;21.88;;;;;;;-2.41;70.00;99700.72;5037436;28;20403;-73
2022/12/13 08:44:31;;;;;;;40.75;21.70;;;;;;;-2.28;69.61;99694.78;5051360;28;20413;-74
2022/12/13 08:46:56;;;;;;;40.47;21.73;;;;;;;-2.16;69.31;99695.97;5012397;28;20420;-74
2022/12/13 08:49:21;;;;;;;38.30;20.30;;;;;;;-2.03;68.96;99701.47;5013485;28;20729;-74
2022/12/13 08:51:47;;;;;;;39.83;20.80;;;;;;;-1.99;68.62;99700.13;5025459;28;20400;-74
2022/12/13 08:54:12;;;;;;;39.13;21.50;;;;;;;-1.91;68.81;99709.81;5021424;28;20983;-74
2022/12/13 08:56:37;;;;;;;43.50;21.53;;;;;;;-1.81;68.67;99711.19;5051919;28;20827;-74
2022/12/13 08:59:03;;;;;;;38.53;21.05;;;;;;;-1.86;68.51;99704.78;5034198;28;20436;-74
2022/12/13 09:01:28;;;;;;;37.58;20.67;;;;;;;-1.90;68.44;99711.44;5053324;28;20429;-74
2022/12/13 09:03:55;;;;;;;38.70;20.80;;;;;;;-1.87;68.74;99709.25;5053127;28;20484;-74
2022/12/13 09:06:20;;;;;;;37.30;20.40;;;;;;;-1.81;68.76;99713.84;5029721;28;20442;-75
2022/12/13 09:08:46;;;;;;;41.13;20.37;;;;;;;-1.78;68.04;99710.81;5043131;28;20401;-74
2022/12/13 09:11:11;;;;;;;39.47;20.60;;;;;;;-1.75;68.48;99705.16;5039977;28;20383;-74
2022/12/13 09:13:39;;;;;;;40.13;20.27;;;;;;;-1.64;68.20;99704.66;5033814;28;20408;-75
2022/12/13 09:16:23;;;;;;;34.47;19.25;;;;;;;-1.48;68.04;99705.50;5037552;28;20392;-74
2022/12/13 09:18:50;;;;;;;36.75;20.80;;;;;;;-1.32;67.32;99702.63;5052845;28;20373;-74
2022/12/13 09:21:16;;;;;;;38.22;19.80;;;;;;;-1.29;67.54;99702.25;5051016;28;20397;-74
2022/12/13 09:23:41;;;;;;;39.30;20.08;;;;;;;-1.29;66.92;99710.22;5038105;28;20534;-74
2022/12/13 09:26:07;;;;;;;33.80;19.10;;;;;;;-1.25;66.95;99704.31;5036719;28;20509;-74
2022/12/13 09:28:35;;;;;;;34.88;19.13;;;;;;;-1.25;66.98;99706.97;5040852;28;20876;-74
2022/12/13 09:31:06;;;;;;;35.08;19.30;;;;;;;-1.24;66.66;99705.16;5052285;28;20442;-74
2022/12/13 09:33:31;;;;;;;35.42;19.10;;;;;;;-1.23;66.55;99712.13;5047575;28;20423;-73
2022/12/13 09:35:57;;;;;;;42.53;22.47;;;;;;;-1.27;66.30;99709.00;5016723;28;20396;-74
2022/12/13 09:38:22;;;;;;;41.07;21.47;;;;;;;-1.20;66.50;99709.91;5033735;28;20397;-73
2022/12/13 09:40:50;;;;;;;35.70;19.27;;;;;;;-1.02;66.57;99701.50;5052029;28;20381;-73
2022/12/13 09:43:23;;;;;;;32.38;19.27;;;;;;;-0.76;65.75;99703.63;5032878;28;20431;-75
2022/12/13 09:45:49;;;;;;;35.70;18.83;;;;;;;-0.79;65.37;99712.78;5023224;28;20417;-75
2022/12/13 09:48:19;;;;;;;36.40;18.23;;;;;;;-0.76;65.74;99695.63;5038605;28;20395;-75
2022/12/13 09:50:46;;;;;;;37.70;19.77;;;;;;;-0.66;65.30;99701.47;5052393;28;20393;-75
2022/12/13 09:53:15;;;;;;;34.80;19.05;;;;;;;-0.56;64.92;99704.63;5038444;28;20396;-75
2022/12/13 09:55:43;;;;;;;36.00;18.40;;;;;;;-0.50;64.57;99697.69;5025384;28;20413;-75
2022/12/13 09:58:19;;;;;;;34.60;18.95;;;;;;;-0.54;64.19;99702.59;5057256;28;20400;-75
2022/12/13 10:00:47;;;;;;;34.15;18.95;;;;;;;-0.50;64.19;99698.53;5045719;28;20826;-75
2022/12/13 10:03:14;;;;;;;30.33;18.13;;;;;;;-0.55;64.36;99696.44;5020939;28;20394;-75
2022/12/13 10:05:44;;;;;;;32.50;17.98;;;;;;;-0.51;64.40;99696.88;5051766;28;20413;-75
2022/12/13 10:08:13;;;;;;;32.15;17.73;;;;;;;-0.50;64.04;99697.69;5037109;28;20450;-75
2022/12/13 10:10:39;;;;;;;29.38;17.25;;;;;;;-0.50;64.09;99692.38;5050557;28;20394;-75
2022/12/13 10:13:04;;;;;;;30.15;17.27;;;;;;;-0.48;64.08;99688.50;5051822;28;20991;-75
2022/12/13 10:15:32;;;;;;;32.27;17.97;;;;;;;-0.44;63.88;99687.09;5049457;28;20850;-75
2022/12/13 10:18:01;;;;;;;31.95;17.63;;;;;;;-0.41;64.39;99678.75;5037001;28;20454;-75
2022/12/13 10:20:28;;;;;;;33.00;18.30;;;;;;;-0.23;63.53;99683.59;5036090;28;20391;-75
2022/12/13 10:22:53;;;;;;;35.17;17.75;;;;;;;-0.16;63.61;99663.94;5018609;28;20757;-75
2022/12/13 10:25:46;;;;;;;28.23;15.63;;;;;;;-0.24;63.41;99661.47;5033394;28;20896;-75
2022/12/13 10:28:14;;;;;;;34.45;17.88;;;;;;;-0.30;63.39;99661.41;5042128;28;20464;-73
2022/12/13 10:30:42;;;;;;;30.25;17.38;;;;;;;-0.29;63.55;99657.72;5042376;28;20447;-73
2022/12/13 10:33:23;;;;;;;29.92;16.67;;;;;;;-0.25;63.56;99646.50;5044178;28;20747;-75
2022/12/13 10:36:23;;;;;;;30.80;17.17;;;;;;;-0.22;63.80;99639.94;5023253;28;20416;-73
2022/12/13 10:38:49;;;;;;;34.13;20.42;;;;;;;-0.25;63.33;99638.50;5019657;28;20430;-75
2022/12/13 10:41:37;;;;;;;29.00;16.10;;;;;;;-0.19;63.21;99652.88;5038137;28;20460;-75
2022/12/13 10:44:23;;;;;;;34.58;19.05;;;;;;;-0.17;63.50;99649.00;5045733;28;20432;-75
2022/12/13 10:47:01;;;;;;;29.45;16.15;;;;;;;-0.13;62.78;99641.44;5027248;28;20500;-75
2022/12/13 10:49:36;;;;;;;26.80;15.50;;;;;;;-0.09;63.09;99646.19;5042001;28;20404;-75
2022/12/13 10:52:02;;;;;;;33.00;17.00;;;;;;;-0.03;62.79;99645.38;5028391;28;20927;-74
2022/12/13 10:54:36;;;;;;;29.87;16.93;;;;;;;0.04;62.50;99655.25;5032292;28;20428;-75
2022/12/13 10:57:02;;;;;;;30.40;16.92;;;;;;;0.04;62.75;99657.91;5051220;28;20433;-74
2022/12/13 10:59:36;;;;;;;28.97;15.57;;;;;;;0.11;62.97;99658.78;5032230;28;20758;-75
2022/12/13 11:02:26;;;;;;;25.98;15.05;;;;;;;0.14;62.68;99640.56;5036334;28;20418;-75
2022/12/13 11:04:51;;;;;;;28.73;15.95;;;;;;;0.13;62.61;99644.25;5031341;28;20494;-75
2022/12/13 11:07:26;;;;;;;26.77;16.67;;;;;;;0.15;62.41;99636.06;5012452;28;20433;-75
2022/12/13 11:09:56;;;;;;;28.13;16.40;;;;;;;0.19;62.19;99621.34;5040485;28;20403;-75
2022/12/13 11:12:24;;;;;;;26.63;15.70;;;;;;;0.14;62.53;99613.91;5051399;28;20765;-75
2022/12/13 11:14:59;;;;;;;30.05;16.77;;;;;;;0.17;62.40;99623.34;5051271;28;20474;-75
2022/12/13 11:17:26;;;;;;;29.45;15.88;;;;;;;0.14;62.22;99623.75;5042472;28;20409;-75
2022/12/13 11:19:59;;;;;;;28.23;15.80;;;;;;;0.23;62.59;99622.59;5019377;28;20869;-75
2022/12/13 11:22:31;;;;;;;30.55;17.02;;;;;;;0.26;62.28;99616.84;5049856;28;20393;-75
2022/12/13 11:25:24;;;;;;;30.90;16.45;;;;;;;0.28;62.27;99618.28;5023685;28;20417;-75
2022/12/13 11:28:11;;;;;;;32.57;15.63;;;;;;;0.34;62.19;99616.66;5021459;28;20405;-75